Time;durP1;ratioP1;P1;durP2;ratioP2;P2;SDS_P1;SDS_P2;PMS_P1;PMS_P2;Temp;Humidity;BMP_temperature;BMP_pressure;BME280_temperature;BME280_humidity;BME280_pressure;Samples;Min_cycle;Max_cycle;Signal;HPM_P1;HPM_P2
2022/06/14 00:01:19;;;;;;;8.15;2.47;;;17.10;99.90;;;;;;4909243;28;20100;-88
2022/06/14 00:03:48;;;;;;;9.13;2.70;;;17.10;99.90;;;;;;4924655;28;20053;-88
2022/06/14 00:06:20;;;;;;;5.57;2.00;;;17.10;99.90;;;;;;4925083;28;20016;-89
2022/06/14 00:08:47;;;;;;;5.53;2.22;;;17.00;99.90;;;;;;4940781;28;20040;-89
2022/06/14 00:11:21;;;;;;;5.57;2.15;;;17.00;99.90;;;;;;4924479;28;20024;-90
2022/06/14 00:13:48;;;;;;;8.07;2.38;;;17.00;99.90;;;;;;4924315;28;20048;-89
2022/06/14 00:16:17;;;;;;;6.40;1.85;;;17.00;99.90;;;;;;4924694;28;20044;-90
2022/06/14 00:18:44;;;;;;;5.10;1.88;;;17.00;99.90;;;;;;4924334;28;20074;-89
2022/06/14 00:21:10;;;;;;;12.93;2.20;;;17.00;99.90;;;;;;4924824;28;20019;-90
2022/06/14 00:23:37;;;;;;;5.00;2.13;;;17.00;99.90;;;;;;4924730;28;20043;-90
2022/06/14 00:26:04;;;;;;;7.30;1.80;;;17.00;99.90;;;;;;4940395;28;20044;-90
2022/06/14 00:28:33;;;;;;;5.75;2.22;;;17.00;99.90;;;;;;4909004;28;20135;-89
2022/06/14 00:31:11;;;;;;;4.05;1.90;;;17.00;99.90;;;;;;4909070;28;20025;-90
2022/06/14 00:33:37;;;;;;;4.15;2.15;;;17.00;99.90;;;;;;4908868;28;20035;-90
2022/06/14 00:36:28;;;;;;;5.13;1.85;;;17.10;99.90;;;;;;4927715;28;20055;-90
2022/06/14 00:38:55;;;;;;;7.53;1.67;;;17.10;99.90;;;;;;4928039;28;20020;-90
2022/06/14 00:41:33;;;;;;;7.18;1.88;;;17.10;99.90;;;;;;4912113;28;20055;-89
2022/06/14 00:43:59;;;;;;;5.28;2.08;;;17.20;99.90;;;;;;4927883;28;20052;-90
2022/06/14 00:46:55;;;;;;;2.92;1.83;;;17.10;99.90;;;;;;4912237;28;20024;-90
2022/06/14 00:49:38;;;;;;;6.68;2.10;;;17.10;99.90;;;;;;4912595;28;20039;-89
2022/06/14 00:52:22;;;;;;;5.28;2.00;;;17.00;99.90;;;;;;4944001;28;20024;-90
2022/06/14 00:54:54;;;;;;;7.20;2.15;;;17.00;99.90;;;;;;4928155;28;20027;-90
2022/06/14 00:57:27;;;;;;;3.72;2.13;;;17.00;99.90;;;;;;4912556;28;20103;-89
2022/06/14 01:00:10;;;;;;;4.88;2.30;;;16.90;99.90;;;;;;4927947;28;20034;-88
2022/06/14 01:02:50;;;;;;;5.57;1.95;;;16.90;99.90;;;;;;4927861;28;20032;-89
2022/06/14 01:08:27;;;;;;;7.68;2.13;;;16.80;99.90;;;;;;4927836;28;20039;-90
2022/06/14 01:10:54;;;;;;;4.63;2.05;;;16.80;99.90;;;;;;4943529;28;20016;-89
2022/06/14 01:13:21;;;;;;;5.95;1.95;;;16.70;99.90;;;;;;4927595;28;20016;-87
2022/06/14 01:15:50;;;;;;;7.00;2.30;;;16.70;99.90;;;;;;4928141;28;20085;-89
2022/06/14 01:18:16;;;;;;;7.85;2.20;;;16.70;99.90;;;;;;4943778;28;20020;-88
2022/06/14 01:20:43;;;;;;;6.10;2.20;;;16.70;99.90;;;;;;4928055;28;20013;-89
2022/06/14 01:23:16;;;;;;;7.78;2.25;;;16.70;99.90;;;;;;4927314;28;20032;-90
2022/06/14 01:25:55;;;;;;;9.70;2.30;;;16.70;99.90;;;;;;4987312;24;20043;-88
2022/06/14 01:28:25;;;;;;;4.63;2.10;;;16.70;99.90;;;;;;4943584;29;20032;-88
2022/06/14 01:30:52;;;;;;;5.38;2.20;;;16.60;99.90;;;;;;4943140;29;20012;-89
2022/06/14 01:33:21;;;;;;;5.53;2.28;;;16.60;99.90;;;;;;4943125;29;20024;-89
2022/06/14 01:35:53;;;;;;;5.18;1.92;;;16.60;99.90;;;;;;4926987;29;20053;-89
2022/06/14 01:38:20;;;;;;;5.18;2.33;;;16.50;99.90;;;;;;4926927;29;20104;-89
2022/06/14 01:41:17;;;;;;;6.32;2.10;;;16.50;99.90;;;;;;4911422;29;20016;-89
2022/06/14 01:44:09;;;;;;;5.60;2.05;;;16.50;99.90;;;;;;4927145;29;20042;-89
2022/06/14 01:47:01;;;;;;;3.72;2.15;;;16.50;99.90;;;;;;4927040;29;20016;-89
2022/06/14 01:52:57;;;;;;;4.65;2.38;;;16.40;99.90;;;;;;4943256;29;20051;-88
2022/06/14 01:55:32;;;;;;;7.03;2.15;;;16.40;99.90;;;;;;4908820;29;20048;-88
2022/06/14 01:58:33;;;;;;;6.95;2.13;;;16.30;99.90;;;;;;4892480;29;20117;-89
2022/06/14 02:01:09;;;;;;;5.65;2.42;;;16.30;99.90;;;;;;4877543;29;20044;-88
2022/06/14 02:07:06;;;;;;;7.15;2.33;;;16.20;99.90;;;;;;4907732;29;20017;-88
2022/06/14 02:09:59;;;;;;;7.88;2.10;;;16.20;99.90;;;;;;4907138;29;20061;-89
2022/06/14 02:12:34;;;;;;;6.68;2.13;;;16.20;99.90;;;;;;4907822;29;20037;-90
2022/06/14 02:15:02;;;;;;;;;;;16.20;99.90;;;;;;4908510;29;20020;-88
2022/06/14 02:17:36;;;;;;;6.30;2.35;;;16.10;99.90;;;;;;4907898;29;19958;-88
2022/06/14 02:20:07;;;;;;;9.88;2.92;;;16.10;99.90;;;;;;4892119;29;20021;-87
2022/06/14 02:22:38;;;;;;;4.15;2.10;;;16.10;99.90;;;;;;4892338;29;20040;-89
2022/06/14 02:25:24;;;;;;;7.97;2.10;;;16.00;99.90;;;;;;5021109;23;20058;-88
2022/06/14 02:28:12;;;;;;;6.82;2.30;;;16.00;99.90;;;;;;4964582;28;20047;-89
2022/06/14 02:30:44;;;;;;;4.22;1.83;;;15.90;99.90;;;;;;4964544;28;20047;-89
2022/06/14 02:33:37;;;;;;;5.00;2.40;;;15.90;99.90;;;;;;4959847;28;20091;-89
2022/06/14 02:36:12;;;;;;;10.10;2.25;;;15.90;99.90;;;;;;4961506;28;20043;-89
2022/06/14 02:39:20;;;;;;;5.28;2.15;;;15.80;99.90;;;;;;4945068;28;20091;-88
2022/06/14 02:42:06;;;;;;;8.45;2.38;;;15.80;99.90;;;;;;4941709;28;20099;-89
2022/06/14 02:44:45;;;;;;;5.63;2.40;;;15.80;99.90;;;;;;4929296;29;20020;-89
2022/06/14 02:47:39;;;;;;;6.13;2.38;;;15.80;99.90;;;;;;4945007;28;20024;-89
2022/06/14 02:50:25;;;;;;;4.90;1.98;;;15.80;99.90;;;;;;4934980;28;20044;-89
2022/06/14 02:53:10;;;;;;;6.85;2.35;;;15.80;99.90;;;;;;4944922;28;20023;-88
2022/06/14 02:55:46;;;;;;;8.68;2.40;;;15.80;99.90;;;;;;4944350;28;20030;-90
2022/06/14 03:05:44;;;;;;;8.55;2.70;;;15.70;99.90;;;;;;4960907;28;20022;-89
2022/06/14 03:08:16;;;;;;;5.45;2.33;;;15.70;99.90;;;;;;4944758;28;20031;-88
2022/06/14 03:10:55;;;;;;;6.70;2.72;;;15.70;99.90;;;;;;4944522;28;20030;-89
2022/06/14 03:13:35;;;;;;;3.88;2.20;;;15.80;99.90;;;;;;4947169;23;21227;-88
2022/06/14 03:16:07;;;;;;;6.47;2.47;;;15.70;99.90;;;;;;4961754;28;20020;-87
2022/06/14 03:18:36;;;;;;;5.13;2.60;;;15.70;99.90;;;;;;4944913;28;20047;-88
2022/06/14 03:21:22;;;;;;;8.52;2.80;;;15.70;99.90;;;;;;4944676;29;20048;-88
2022/06/14 03:24:06;;;;;;;4.47;2.25;;;15.60;99.90;;;;;;4949875;29;20498;-88
2022/06/14 03:26:55;;;;;;;5.30;2.67;;;15.70;99.90;;;;;;4956305;29;20028;-87
2022/06/14 03:29:34;;;;;;;5.18;2.50;;;15.60;99.90;;;;;;4958421;29;20028;-78
2022/06/14 03:32:12;;;;;;;9.15;2.42;;;15.60;99.90;;;;;;4948021;29;20488;-79
2022/06/14 03:34:43;;;;;;;5.63;2.30;;;15.70;99.90;;;;;;4942465;29;20047;-79
2022/06/14 03:37:11;;;;;;;6.05;2.38;;;15.60;99.90;;;;;;4942192;29;20106;-78
2022/06/14 03:39:42;;;;;;;7.20;2.80;;;15.60;99.90;;;;;;4930445;29;20038;-78
2022/06/14 03:42:10;;;;;;;4.13;2.42;;;15.60;99.90;;;;;;4941186;29;20064;-78
2022/06/14 03:44:37;;;;;;;7.00;2.30;;;15.60;99.90;;;;;;4940940;29;20028;-78
2022/06/14 03:47:12;;;;;;;5.13;2.15;;;15.60;99.90;;;;;;4944228;29;20059;-78
2022/06/14 03:49:58;;;;;;;8.35;2.22;;;15.60;99.90;;;;;;4942952;29;20468;-79
2022/06/14 03:52:40;;;;;;;6.13;2.42;;;15.60;99.90;;;;;;4927328;29;20035;-79
2022/06/14 03:55:12;;;;;;;9.50;2.55;;;15.60;99.90;;;;;;4945458;29;20036;-78
2022/06/14 03:58:01;;;;;;;7.55;2.65;;;15.70;99.90;;;;;;4948024;29;20095;-78
2022/06/14 04:00:54;;;;;;;6.45;2.75;;;15.70;99.90;;;;;;4944765;29;20111;-80
2022/06/14 04:03:20;;;;;;;8.35;2.75;;;15.80;99.90;;;;;;4923377;29;20086;-78
2022/06/14 04:06:21;;;;;;;6.28;2.30;;;15.80;99.90;;;;;;4940151;29;20019;-79
2022/06/14 04:09:01;;;;;;;5.43;2.17;;;15.80;99.90;;;;;;4921906;29;20027;-77
2022/06/14 04:11:56;;;;;;;4.80;2.50;;;15.90;99.90;;;;;;4906990;29;20032;-78
2022/06/14 04:15:02;;;;;;;8.60;2.90;;;15.90;99.90;;;;;;4942232;29;20123;-78
2022/06/14 04:17:40;;;;;;;8.13;2.53;;;15.90;99.90;;;;;;4884686;29;20040;-77
2022/06/14 04:20:25;;;;;;;6.20;2.40;;;16.00;99.90;;;;;;4929205;29;20039;-78
2022/06/14 04:23:27;;;;;;;7.55;2.88;;;16.00;99.90;;;;;;4946502;29;20042;-79
2022/06/14 04:26:20;;;;;;;5.20;2.30;;;16.10;99.90;;;;;;4933507;29;20032;-78
2022/06/14 04:29:22;;;;;;;4.15;2.00;;;16.10;99.90;;;;;;4949336;29;20032;-77
2022/06/14 04:31:56;;;;;;;7.20;2.47;;;16.10;99.90;;;;;;4949762;29;20063;-79
2022/06/14 04:34:39;;;;;;;5.60;2.50;;;16.20;99.90;;;;;;4952212;29;20035;-77
2022/06/14 04:37:19;;;;;;;6.93;2.58;;;16.20;99.90;;;;;;4958803;28;20044;-78
2022/06/14 04:39:52;;;;;;;8.25;2.58;;;16.20;99.90;;;;;;4942517;28;20100;-77
2022/06/14 04:42:28;;;;;;;5.60;2.28;;;16.30;99.90;;;;;;4959273;28;20046;-77
2022/06/14 04:45:07;;;;;;;11.50;3.20;;;16.40;99.90;;;;;;4958884;28;20047;-78
2022/06/14 04:48:19;;;;;;;9.90;2.53;;;16.70;99.90;;;;;;4958445;28;20099;-77
2022/06/14 04:50:57;;;;;;;11.32;2.47;;;16.90;99.90;;;;;;4857023;29;20089;-79
2022/06/14 04:54:07;;;;;;;5.82;2.50;;;17.60;99.70;;;;;;4944783;29;20106;-79
2022/06/14 04:56:48;;;;;;;7.18;2.95;;;18.30;98.60;;;;;;4851414;29;20098;-79
2022/06/14 04:59:18;;;;;;;9.70;2.65;;;18.60;97.80;;;;;;4943064;29;20423;-78
2022/06/14 05:01:50;;;;;;;7.15;2.67;;;18.30;97.90;;;;;;4947629;29;20056;-79
2022/06/14 05:04:23;;;;;;;14.07;2.55;;;18.10;97.70;;;;;;4952806;29;20523;-77
2022/06/14 05:06:57;;;;;;;7.95;2.20;;;17.90;98.20;;;;;;4951153;29;20087;-79
2022/06/14 05:09:29;;;;;;;11.30;2.75;;;17.80;98.10;;;;;;4952154;29;20035;-79
2022/06/14 05:12:02;;;;;;;5.80;2.28;;;17.50;98.20;;;;;;4949219;29;20036;-79
2022/06/14 05:14:54;;;;;;;8.93;2.40;;;17.50;98.40;;;;;;4944870;29;20087;-78
2022/06/14 05:17:35;;;;;;;9.30;2.50;;;17.40;98.60;;;;;;4928631;29;20031;-81
2022/06/14 05:20:10;;;;;;;5.45;2.67;;;17.40;98.80;;;;;;4935840;29;20031;-79
2022/06/14 05:22:36;;;;;;;9.30;2.55;;;17.30;98.80;;;;;;4925806;29;20071;-80
2022/06/14 05:25:05;;;;;;;8.43;2.47;;;17.30;98.80;;;;;;4931315;29;20024;-79
2022/06/14 05:27:48;;;;;;;10.05;3.00;;;17.40;98.90;;;;;;4942049;29;20012;-79
2022/06/14 05:30:16;;;;;;;8.15;2.25;;;17.40;98.50;;;;;;4944353;29;20030;-80
2022/06/14 05:32:42;;;;;;;6.78;2.30;;;17.40;98.50;;;;;;4928424;29;20555;-80
2022/06/14 05:35:20;;;;;;;18.83;2.72;;;17.40;98.70;;;;;;4930100;29;20046;-79
2022/06/14 05:37:58;;;;;;;7.97;2.78;;;17.50;98.60;;;;;;4913563;29;20063;-81
2022/06/14 05:40:30;;;;;;;11.00;2.53;;;17.60;98.10;;;;;;4928379;29;20043;-80
2022/06/14 05:43:01;;;;;;;9.00;2.80;;;17.50;98.20;;;;;;4908711;29;20046;-79
2022/06/14 05:45:29;;;;;;;8.63;2.90;;;17.50;98.10;;;;;;4940576;29;20083;-79
2022/06/14 05:48:05;;;;;;;5.40;2.15;;;17.60;98.00;;;;;;4944591;29;20392;-78
2022/06/14 05:50:39;;;;;;;10.82;2.65;;;17.80;98.20;;;;;;4947686;29;20039;-78
2022/06/14 05:53:12;;;;;;;4.38;2.15;;;18.00;97.80;;;;;;4953137;29;20038;-79
2022/06/14 05:55:47;;;;;;;6.25;2.30;;;18.00;97.60;;;;;;4935843;29;20031;-80
2022/06/14 05:58:44;;;;;;;9.77;2.72;;;18.00;97.70;;;;;;4950953;29;20119;-79
2022/06/14 06:01:16;;;;;;;7.65;2.72;;;17.90;97.60;;;;;;4952334;29;20461;-78
2022/06/14 06:03:48;;;;;;;14.73;2.78;;;17.90;97.80;;;;;;4938037;29;20034;-78
2022/06/14 06:06:30;;;;;;;5.45;2.58;;;17.90;97.70;;;;;;4935841;29;20055;-79
2022/06/14 06:09:03;;;;;;;5.70;2.33;;;17.90;97.50;;;;;;4951462;29;20031;-78
2022/06/14 06:11:36;;;;;;;4.57;2.30;;;18.00;97.40;;;;;;4930301;29;20042;-78
2022/06/14 06:14:20;;;;;;;8.07;3.35;;;18.10;97.20;;;;;;4954422;29;20043;-78
2022/06/14 06:19:32;;;;;;;6.70;2.20;;;18.30;97.50;;;;;;4946363;29;20476;-80
2022/06/14 06:22:06;;;;;;;8.90;2.42;;;18.50;97.30;;;;;;4958401;29;20034;-81
2022/06/14 06:25:04;;;;;;;6.33;2.37;;;18.50;96.80;;;;;;4956958;29;20043;-81
2022/06/14 06:27:47;;;;;;;13.43;2.78;;;18.50;97.50;;;;;;4931634;29;20426;-80
2022/06/14 06:30:23;;;;;;;7.03;2.35;;;18.80;96.90;;;;;;4952061;29;20042;-80
2022/06/14 06:32:50;;;;;;;8.00;2.67;;;18.70;96.50;;;;;;4959681;29;20042;-79
2022/06/14 06:35:16;;;;;;;5.80;2.58;;;18.60;96.60;;;;;;4929936;29;20042;-80
2022/06/14 06:38:18;;;;;;;7.32;2.35;;;18.60;96.50;;;;;;4963351;29;20024;-78
2022/06/14 06:43:40;;;;;;;5.28;2.60;;;18.80;97.10;;;;;;4937831;29;20047;-79
2022/06/14 06:46:12;;;;;;;6.90;2.50;;;18.90;96.50;;;;;;4917287;29;20031;-81
2022/06/14 06:48:47;;;;;;;10.18;2.50;;;18.90;96.20;;;;;;4942900;29;20055;-79
2022/06/14 06:51:18;;;;;;;7.25;2.10;;;18.90;96.30;;;;;;4942616;29;20400;-80
2022/06/14 06:53:55;;;;;;;8.30;2.50;;;18.80;96.30;;;;;;4934593;29;20031;-81
2022/06/14 06:56:33;;;;;;;8.07;2.35;;;18.80;96.30;;;;;;4954818;29;20024;-80
2022/06/14 06:59:09;;;;;;;5.85;2.00;;;18.90;95.90;;;;;;4918527;29;20035;-79
2022/06/14 07:01:39;;;;;;;10.20;2.58;;;19.00;94.90;;;;;;4933625;29;20503;-78
2022/06/14 07:05:03;;;;;;;5.47;2.13;;;19.00;95.30;;;;;;4955347;29;20035;-81
2022/06/14 07:07:18;;;;;;;7.30;2.65;;;19.20;95.60;;;;;;4927294;29;20123;-79
2022/06/14 07:09:50;;;;;;;10.30;2.63;;;19.40;95.50;;;;;;4930823;29;20069;-79
2022/06/14 07:12:27;;;;;;;7.63;1.90;;;19.40;94.80;;;;;;4910370;29;20039;-79
2022/06/14 07:15:00;;;;;;;11.73;2.50;;;19.50;95.40;;;;;;4947531;29;20062;-80
2022/06/14 07:17:32;;;;;;;7.75;2.40;;;19.60;94.50;;;;;;4935818;29;20028;-79
2022/06/14 07:20:04;;;;;;;7.10;2.30;;;19.70;95.10;;;;;;4953036;29;20027;-78
2022/06/14 07:22:48;;;;;;;6.10;2.05;;;19.80;94.90;;;;;;4951689;29;20044;-80
2022/06/14 07:25:26;;;;;;;3.55;2.10;;;20.00;95.00;;;;;;4935751;29;20051;-81
2022/06/14 07:28:16;;;;;;;6.50;2.63;;;20.20;94.10;;;;;;4952301;29;20019;-79
2022/06/14 07:30:50;;;;;;;7.20;2.20;;;20.20;93.80;;;;;;4907364;29;20024;-80
2022/06/14 07:33:20;;;;;;;5.15;2.05;;;20.20;94.70;;;;;;4908089;29;20492;-78
2022/06/14 07:35:51;;;;;;;13.50;2.85;;;20.40;94.30;;;;;;4926263;29;20040;-80
2022/06/14 07:38:26;;;;;;;8.55;2.30;;;20.60;94.00;;;;;;4926540;29;20032;-80
2022/06/14 07:40:59;;;;;;;4.75;2.20;;;20.60;93.70;;;;;;4925399;29;20127;-79
2022/06/14 07:43:30;;;;;;;6.80;2.70;;;20.50;93.80;;;;;;4925450;29;20043;-80
2022/06/14 07:46:01;;;;;;;5.78;2.40;;;20.60;94.00;;;;;;4925818;29;20168;-79
2022/06/14 07:48:55;;;;;;;6.22;2.33;;;20.80;93.60;;;;;;4913061;29;20036;-79
2022/06/14 07:51:46;;;;;;;8.18;2.10;;;20.80;92.70;;;;;;4929507;29;20036;-79
2022/06/14 07:54:38;;;;;;;4.45;2.10;;;20.80;93.00;;;;;;4926603;29;20056;-78
2022/06/14 07:57:30;;;;;;;11.77;2.15;;;20.90;93.40;;;;;;4905005;29;20500;-79
2022/06/14 08:02:59;;;;;;;6.32;1.90;;;21.00;93.00;;;;;;4934641;29;20031;-79
2022/06/14 08:05:32;;;;;;;8.60;2.22;;;21.00;93.00;;;;;;4930174;29;20087;-80
2022/06/14 08:08:03;;;;;;;8.27;1.98;;;20.90;93.00;;;;;;4932836;29;20088;-82
2022/06/14 08:10:34;;;;;;;5.82;1.80;;;20.90;92.60;;;;;;4929730;29;20036;-78
2022/06/14 08:13:14;;;;;;;11.18;2.28;;;20.80;92.70;;;;;;4924903;29;20035;-79
2022/06/14 08:15:46;;;;;;;5.20;2.20;;;21.10;92.90;;;;;;4907136;29;20044;-79
2022/06/14 08:18:36;;;;;;;4.63;1.90;;;21.40;92.50;;;;;;4907075;29;20051;-79
2022/06/14 08:21:34;;;;;;;4.53;1.90;;;21.60;92.40;;;;;;4908315;29;20416;-79
2022/06/14 08:24:09;;;;;;;6.57;2.38;;;21.70;92.40;;;;;;4926263;29;20443;-79
2022/06/14 08:26:54;;;;;;;4.43;2.15;;;21.90;92.60;;;;;;4924824;29;20389;-79
2022/06/14 08:29:57;;;;;;;6.93;2.35;;;22.10;92.20;;;;;;4924020;29;20024;-80
2022/06/14 08:32:56;;;;;;;8.32;2.15;;;22.40;91.70;;;;;;4927712;29;20470;-79
2022/06/14 08:35:48;;;;;;;7.30;2.20;;;22.50;91.50;;;;;;4942887;29;20035;-80
2022/06/14 08:38:29;;;;;;;7.65;2.17;;;22.40;91.70;;;;;;4914044;29;20473;-81
2022/06/14 08:41:14;;;;;;;9.68;2.28;;;22.60;91.50;;;;;;4946278;29;20074;-79
2022/06/14 08:43:45;;;;;;;7.18;2.10;;;22.60;91.50;;;;;;4926417;29;20059;-81
2022/06/14 08:46:27;;;;;;;11.45;2.15;;;22.70;91.50;;;;;;4943297;29;20091;-81
2022/06/14 08:49:41;;;;;;;8.27;1.90;;;22.70;91.20;;;;;;4925148;29;20028;-80
2022/06/14 08:52:35;;;;;;;5.03;2.25;;;22.60;91.30;;;;;;4903939;29;20063;-80
2022/06/14 08:55:10;;;;;;;7.32;2.80;;;22.60;91.50;;;;;;4923864;29;20043;-81
2022/06/14 08:57:39;;;;;;;7.28;2.85;;;22.50;91.40;;;;;;4926305;29;20037;-83
2022/06/14 09:00:19;;;;;;;8.15;2.10;;;22.60;91.30;;;;;;4946279;29;20389;-82
2022/06/14 09:03:05;;;;;;;16.20;2.80;;;22.70;91.20;;;;;;4949200;29;20032;-81
2022/06/14 09:05:57;;;;;;;7.32;2.10;;;22.70;90.80;;;;;;4930771;29;20024;-80
2022/06/14 09:08:44;;;;;;;5.60;2.47;;;22.70;90.70;;;;;;4950301;29;20377;-80
2022/06/14 09:11:28;;;;;;;8.68;2.08;;;22.80;90.60;;;;;;4935195;29;20063;-81
2022/06/14 09:14:06;;;;;;;4.03;1.98;;;22.80;90.80;;;;;;4961931;23;20093;-85
2022/06/14 09:17:06;;;;;;;10.35;2.03;;;22.80;90.60;;;;;;4973062;29;20038;-86
2022/06/14 09:20:02;;;;;;;3.45;1.80;;;22.80;90.60;;;;;;4955693;29;20056;-86
2022/06/14 09:23:00;;;;;;;4.82;2.20;;;22.80;89.30;;;;;;4958241;29;20047;-86
2022/06/14 09:25:48;;;;;;;3.53;1.90;;;22.70;89.80;;;;;;4912651;29;20047;-87
2022/06/14 09:28:29;;;;;;;5.97;1.90;;;22.60;90.40;;;;;;4937707;29;20035;-85
2022/06/14 09:31:01;;;;;;;5.38;2.13;;;22.60;90.80;;;;;;4953241;29;20080;-85
2022/06/14 09:33:48;;;;;;;6.63;2.13;;;22.70;90.80;;;;;;4920057;29;20099;-86
2022/06/14 09:36:36;;;;;;;4.70;2.30;;;22.80;90.80;;;;;;4936773;29;20051;-85
2022/06/14 09:39:01;;;;;;;5.50;2.17;;;22.80;89.90;;;;;;4949033;29;20036;-86
2022/06/14 09:41:46;;;;;;;6.20;1.98;;;22.80;90.70;;;;;;4920642;29;20035;-85
2022/06/14 09:44:21;;;;;;;3.78;1.83;;;22.80;90.60;;;;;;4932562;29;20148;-85
2022/06/14 09:46:52;;;;;;;;;;;23.00;90.40;;;;;;4917310;29;20035;-87
2022/06/14 09:49:30;;;;;;;5.40;2.17;;;23.20;90.20;;;;;;4936429;29;19939;-87
2022/06/14 09:52:21;;;;;;;4.35;2.30;;;23.60;89.30;;;;;;4938343;29;20064;-85
2022/06/14 09:55:06;;;;;;;12.35;3.47;;;23.80;88.40;;;;;;4937003;29;20040;-84
2022/06/14 09:57:39;;;;;;;5.00;2.17;;;23.90;87.70;;;;;;4921974;29;20026;-86
2022/06/14 10:00:30;;;;;;;4.38;2.00;;;24.40;86.90;;;;;;4935464;29;20117;-85
2022/06/14 10:03:49;;;;;;;6.22;2.10;;;25.10;84.90;;;;;;4934026;29;20039;-86
2022/06/14 10:06:21;;;;;;;5.80;2.10;;;25.70;83.90;;;;;;4934851;29;20036;-85
2022/06/14 10:09:21;;;;;;;8.15;2.40;;;25.90;83.00;;;;;;4933317;29;20043;-85
2022/06/14 10:12:24;;;;;;;8.98;2.42;;;27.00;80.80;;;;;;4933231;29;20089;-85
2022/06/14 10:14:59;;;;;;;11.35;2.60;;;27.70;77.70;;;;;;4964382;28;20036;-86
2022/06/14 10:17:49;;;;;;;;;;;27.90;76.90;;;;;;4956064;29;20027;-87
2022/06/14 10:20:33;;;;;;;7.82;2.15;;;27.90;76.30;;;;;;4928869;29;19910;-86
2022/06/14 10:23:30;;;;;;;6.22;1.88;;;28.40;75.30;;;;;;4955190;29;20054;-87
2022/06/14 10:29:34;;;;;;;6.47;2.00;;;27.40;75.50;;;;;;4954105;29;20079;-87
2022/06/14 10:32:15;;;;;;;9.93;4.18;;;27.20;76.70;;;;;;4924486;29;20071;-86
2022/06/14 10:34:56;;;;;;;7.55;2.20;;;28.10;74.50;;;;;;4954313;29;20016;-85
2022/06/14 10:37:44;;;;;;;5.80;1.90;;;28.20;74.00;;;;;;4957303;29;20024;-87
2022/06/14 10:40:26;;;;;;;9.20;2.08;;;27.50;74.60;;;;;;4959251;29;20031;-88
2022/06/14 10:42:56;;;;;;;7.40;2.10;;;27.10;75.10;;;;;;4954188;29;20043;-87
2022/06/14 10:45:43;;;;;;;6.03;1.88;;;26.60;75.60;;;;;;4958354;29;20035;-85
2022/06/14 10:48:15;;;;;;;4.22;2.03;;;26.30;76.10;;;;;;4954944;29;20042;-86
2022/06/14 10:51:04;;;;;;;9.02;1.92;;;27.00;74.00;;;;;;4953748;29;20031;-85
2022/06/14 10:53:39;;;;;;;8.82;2.40;;;27.00;69.50;;;;;;4953288;29;20040;-87
2022/06/14 10:56:26;;;;;;;8.75;2.38;;;26.80;69.10;;;;;;4959754;29;20092;-85
2022/06/14 10:59:13;;;;;;;8.10;2.13;;;26.60;71.50;;;;;;4960203;28;20043;-85
2022/06/14 11:02:16;;;;;;;8.10;2.75;;;26.40;73.40;;;;;;4935535;29;20036;-87
2022/06/14 11:05:13;;;;;;;3.20;1.98;;;26.70;73.90;;;;;;4950768;29;20087;-85
2022/06/14 11:08:10;;;;;;;9.07;2.13;;;27.00;73.20;;;;;;4952244;29;20100;-86
2022/06/14 11:10:57;;;;;;;5.47;2.05;;;27.40;71.80;;;;;;4949943;29;20027;-86
2022/06/14 11:13:28;;;;;;;4.00;1.73;;;27.80;71.20;;;;;;4950813;29;20047;-85
2022/06/14 11:16:17;;;;;;;3.70;1.80;;;28.10;70.10;;;;;;4948880;29;20681;-84
2022/06/14 11:19:01;;;;;;;6.55;2.17;;;29.50;68.60;;;;;;4929891;29;20106;-87
2022/06/14 11:21:42;;;;;;;5.20;1.92;;;30.00;67.30;;;;;;4950193;29;20031;-85
2022/06/14 11:24:26;;;;;;;3.75;1.75;;;30.40;67.60;;;;;;4951789;29;20036;-84
2022/06/14 11:27:06;;;;;;;9.15;2.17;;;31.10;64.20;;;;;;4948542;29;20078;-84
2022/06/14 11:29:40;;;;;;;2.95;1.73;;;31.50;64.90;;;;;;4950017;29;20024;-83
2022/06/14 11:32:23;;;;;;;6.13;2.20;;;31.50;64.90;;;;;;4952271;29;20031;-86
2022/06/14 11:35:15;;;;;;;4.18;1.70;;;32.30;63.60;;;;;;4938967;29;20282;-85
2022/06/14 11:38:06;;;;;;;5.82;2.20;;;32.80;62.80;;;;;;4939962;28;20044;-84
2022/06/14 11:40:35;;;;;;;5.97;1.90;;;33.60;61.50;;;;;;4959599;28;20016;-83
2022/06/14 11:43:20;;;;;;;4.55;1.60;;;34.30;58.90;;;;;;4959679;28;20037;-89
2022/06/14 11:46:07;;;;;;;6.43;1.92;;;34.90;57.50;;;;;;4943335;29;20060;-89
2022/06/14 11:48:39;;;;;;;19.23;1.95;;;35.50;56.20;;;;;;4927715;29;20032;-89
2022/06/14 11:51:24;;;;;;;4.60;1.65;;;35.70;55.40;;;;;;4925294;29;20539;-91
2022/06/14 11:54:11;;;;;;;5.30;2.30;;;36.60;54.40;;;;;;4942639;29;20032;-88
2022/06/14 11:56:59;;;;;;;4.47;2.03;;;36.80;53.60;;;;;;4937709;29;20031;-90
2022/06/14 11:59:54;;;;;;;3.58;1.70;;;35.50;53.80;;;;;;4935243;29;20034;-90
2022/06/14 12:02:32;;;;;;;5.03;1.60;;;35.90;52.90;;;;;;4926740;29;20389;-89
2022/06/14 12:05:24;;;;;;;3.10;1.55;;;36.20;53.20;;;;;;4920037;29;20039;-90
2022/06/14 12:08:09;;;;;;;3.47;1.70;;;37.10;51.90;;;;;;4953037;28;20032;-90
2022/06/14 12:10:54;;;;;;;3.67;1.85;;;38.60;50.10;;;;;;4916270;29;20046;-90
2022/06/14 12:13:43;;;;;;;5.88;2.20;;;38.80;49.80;;;;;;4935185;29;20039;-90
2022/06/14 12:16:40;;;;;;;3.95;2.13;;;38.80;49.20;;;;;;4941943;29;20075;-89
2022/06/14 12:19:23;;;;;;;4.78;1.70;;;38.40;49.10;;;;;;4960180;28;20023;-89
2022/06/14 12:22:36;;;;;;;3.38;1.75;;;38.40;48.90;;;;;;4962919;28;20039;-89
2022/06/14 12:28:21;;;;;;;5.68;1.83;;;38.80;48.30;;;;;;4902651;29;20037;-88
2022/06/14 12:30:50;;;;;;;4.35;1.75;;;37.80;48.90;;;;;;4958396;28;20145;-89
2022/06/14 12:33:27;;;;;;;6.53;1.65;;;37.10;48.90;;;;;;4953325;28;20035;-87
2022/06/14 12:36:19;;;;;;;2.78;1.65;;;36.80;49.70;;;;;;4970164;28;20020;-89
2022/06/14 12:38:49;;;;;;;5.05;1.90;;;36.70;49.50;;;;;;4947260;29;20034;-90
2022/06/14 12:41:27;;;;;;;7.28;1.60;;;37.60;48.40;;;;;;4946915;29;20044;-91
2022/06/14 12:44:29;;;;;;;3.30;1.33;;;38.40;47.80;;;;;;4963727;29;20059;-89
2022/06/14 12:47:00;;;;;;;5.07;2.58;;;39.10;46.90;;;;;;4933789;29;20055;-90
2022/06/14 12:49:38;;;;;;;4.32;2.22;;;39.00;47.00;;;;;;4931122;29;20027;-90
2022/06/14 12:52:17;;;;;;;5.55;1.63;;;38.30;47.20;;;;;;4946655;29;20125;-89
2022/06/14 12:54:56;;;;;;;2.78;1.70;;;38.20;47.20;;;;;;4946600;29;20023;-88
2022/06/14 12:57:27;;;;;;;4.82;1.67;;;38.30;46.30;;;;;;4930989;29;20035;-89
2022/06/14 13:00:08;;;;;;;5.18;1.63;;;38.30;46.90;;;;;;4962520;29;20062;-89
2022/06/14 13:02:38;;;;;;;3.70;1.60;;;37.80;47.20;;;;;;4958345;29;20043;-90
2022/06/14 13:05:10;;;;;;;5.57;1.60;;;38.30;47.40;;;;;;4936532;29;20035;-90
2022/06/14 13:07:55;;;;;;;3.65;1.58;;;38.50;46.30;;;;;;4936217;29;20039;-89
2022/06/14 13:10:33;;;;;;;4.70;1.42;;;38.80;46.40;;;;;;4933836;29;20051;-90
2022/06/14 13:13:17;;;;;;;3.55;1.58;;;38.70;46.30;;;;;;4934289;29;20028;-91
2022/06/14 13:16:04;;;;;;;3.92;1.60;;;37.50;47.00;;;;;;4937071;29;20040;-89
2022/06/14 13:18:55;;;;;;;4.05;1.63;;;37.80;46.90;;;;;;4944402;29;20077;-90
2022/06/14 13:21:44;;;;;;;3.35;1.58;;;38.40;46.50;;;;;;4960665;29;20040;-90
2022/06/14 13:24:55;;;;;;;3.22;1.65;;;38.70;45.90;;;;;;4944093;29;20044;-89
2022/06/14 13:27:39;;;;;;;2.58;1.38;;;39.80;44.80;;;;;;4960144;29;20023;-89
2022/06/14 13:30:05;;;;;;;;;;;40.10;44.50;;;;;;4962026;29;20035;-89
2022/06/14 13:32:54;;;;;;;5.68;1.80;;;39.60;44.80;;;;;;4958125;29;19907;-90
2022/06/14 13:35:38;;;;;;;2.35;1.60;;;40.10;44.30;;;;;;4939258;29;20052;-90
2022/06/14 13:38:06;;;;;;;;;;;39.50;45.20;;;;;;4943848;29;20039;-89
2022/06/14 13:40:38;;;;;;;3.60;1.73;;;39.60;44.80;;;;;;4927583;29;19963;-90
2022/06/14 13:43:14;;;;;;;4.95;1.65;;;39.70;44.50;;;;;;4945496;28;20032;-88
2022/06/14 13:45:53;;;;;;;2.90;1.70;;;39.40;44.80;;;;;;4962126;28;20020;-90
2022/06/14 13:48:40;;;;;;;2.10;1.30;;;38.60;45.00;;;;;;4945507;28;20016;-90
2022/06/14 13:51:25;;;;;;;4.13;1.80;;;39.20;44.80;;;;;;4962441;28;20035;-89
2022/06/14 13:54:23;;;;;;;4.78;1.80;;;39.50;44.40;;;;;;4945527;29;20031;-91
2022/06/14 13:56:56;;;;;;;4.80;1.85;;;39.20;44.80;;;;;;4960767;29;20068;-90
2022/06/14 13:59:31;;;;;;;3.75;1.50;;;39.30;44.90;;;;;;4961250;28;20036;-89
2022/06/14 14:02:12;;;;;;;5.35;1.80;;;39.80;44.80;;;;;;4944732;29;20116;-89
2022/06/14 14:04:50;;;;;;;3.67;1.35;;;39.70;44.00;;;;;;4944265;28;20031;-90
2022/06/14 14:07:57;;;;;;;4.60;1.60;;;39.40;44.50;;;;;;4962436;28;20039;-90
2022/06/14 14:10:36;;;;;;;2.78;1.30;;;38.50;45.10;;;;;;4945467;28;20035;-91
2022/06/14 14:13:24;;;;;;;4.78;1.73;;;37.90;44.80;;;;;;4945528;29;20028;-89
2022/06/14 14:16:03;;;;;;;2.88;1.35;;;37.10;45.90;;;;;;5006795;23;20096;-89
2022/06/14 14:19:05;;;;;;;5.03;2.03;;;37.40;46.30;;;;;;4942294;29;20032;-89
2022/06/14 14:25:15;;;;;;;4.53;1.40;;;37.40;46.00;;;;;;4960202;28;20063;-89
2022/06/14 14:27:59;;;;;;;;;;;37.40;45.90;;;;;;4946093;28;20083;-90
2022/06/14 14:30:44;;;;;;;4.00;1.40;;;37.20;46.30;;;;;;4961462;28;19970;-87
2022/06/14 14:33:36;;;;;;;5.90;1.60;;;37.50;45.70;;;;;;4944365;28;20067;-90